createdAt,value
2019-05-23T00:01:45.381Z,13.60
2019-05-23T00:04:20.359Z,14.47
2019-05-23T00:06:50.167Z,13.70
2019-05-23T00:09:20.531Z,12.43
2019-05-23T00:12:16.524Z,14.20
2019-05-23T00:14:51.622Z,14.10
2019-05-23T00:17:23.067Z,13.47
2019-05-23T00:19:53.127Z,14.23
2019-05-23T00:22:24.190Z,13.17
2019-05-23T00:24:55.671Z,14.30
2019-05-23T00:27:27.119Z,13.93
2019-05-23T00:29:58.808Z,13.30
2019-05-23T00:32:34.633Z,14.63
2019-05-23T00:35:05.276Z,12.17
2019-05-23T00:37:35.003Z,15.57
2019-05-23T00:40:06.520Z,14.67
2019-05-23T00:42:36.780Z,13.60
2019-05-23T00:45:07.486Z,15.43
2019-05-23T00:47:39.447Z,12.80
2019-05-23T00:50:12.064Z,15.97
2019-05-23T00:52:42.665Z,15.40
2019-05-23T00:55:14.576Z,14.87
2019-05-23T00:57:45.011Z,13.77
2019-05-23T01:00:17.392Z,14.93
2019-05-23T01:02:48.105Z,14.47
2019-05-23T01:05:17.505Z,16.73
2019-05-23T01:07:48.537Z,16.27
2019-05-23T01:10:19.346Z,15.87
2019-05-23T01:12:50.013Z,14.73
2019-05-23T01:15:21.070Z,15.87
2019-05-23T01:17:51.335Z,14.50
2019-05-23T01:20:26.795Z,15.10
2019-05-23T01:22:57.786Z,14.97
2019-05-23T01:25:28.110Z,14.63
2019-05-23T01:27:58.383Z,14.23
2019-05-23T01:30:32.118Z,14.47
2019-05-23T01:33:02.543Z,13.77
2019-05-23T01:35:32.754Z,15.93
2019-05-23T01:38:04.286Z,14.47
2019-05-23T01:40:33.990Z,15.53
2019-05-23T01:43:04.580Z,14.97
2019-05-23T01:45:35.555Z,16.03
2019-05-23T01:48:05.800Z,16.63
2019-05-23T01:50:36.468Z,19.10
2019-05-23T01:53:07.866Z,19.37
2019-05-23T01:55:37.464Z,16.43
2019-05-23T01:58:07.494Z,18.03
2019-05-23T02:00:38.668Z,19.97
2019-05-23T02:03:08.799Z,18.43
2019-05-23T02:05:38.701Z,17.27
2019-05-23T02:08:11.409Z,19.20
2019-05-23T02:10:41.921Z,15.73
2019-05-23T02:13:12.532Z,16.23
2019-05-23T02:15:43.840Z,19.97
2019-05-23T02:18:13.890Z,16.97
2019-05-23T02:20:43.654Z,18.70
2019-05-23T02:23:15.094Z,19.47
2019-05-23T02:25:45.888Z,20.03
2019-05-23T02:28:15.862Z,17.53
2019-05-23T02:30:47.168Z,17.50
2019-05-23T02:33:17.566Z,20.73
2019-05-23T02:35:47.362Z,19.00
2019-05-23T02:38:28.399Z,22.27
2019-05-23T02:41:20.293Z,18.53
2019-05-23T02:43:52.866Z,16.40
2019-05-23T02:46:34.491Z,16.80
2019-05-23T02:49:07.241Z,17.07
2019-05-23T02:51:39.268Z,17.23
2019-05-23T02:54:11.983Z,18.57
2019-05-23T02:56:42.228Z,17.37
2019-05-23T02:59:39.271Z,19.40
2019-05-23T03:02:51.190Z,17.57
2019-05-23T03:05:24.949Z,17.83
2019-05-23T03:07:56.688Z,18.13
2019-05-23T03:10:28.584Z,19.40
2019-05-23T03:12:59.277Z,18.73
2019-05-23T03:15:30.879Z,19.17
2019-05-23T03:18:03.305Z,18.87
2019-05-23T03:20:34.289Z,19.93
2019-05-23T03:23:09.632Z,16.80
2019-05-23T03:26:21.472Z,21.00
2019-05-23T03:28:52.442Z,18.47
2019-05-23T03:31:31.552Z,17.10
2019-05-23T03:33:58.761Z,18.33
2019-05-23T03:36:29.368Z,21.13
2019-05-23T03:38:59.182Z,20.00
2019-05-23T03:41:30.570Z,20.13
2019-05-23T03:44:03.121Z,20.90
2019-05-23T03:46:34.398Z,19.13
2019-05-23T03:49:05.015Z,16.80
2019-05-23T03:51:36.480Z,17.60
2019-05-23T03:54:06.625Z,17.97
2019-05-23T03:56:36.196Z,16.60
2019-05-23T03:59:07.668Z,18.10
2019-05-23T04:01:48.008Z,18.43
2019-05-23T04:04:10.575Z,18.93
2019-05-23T04:06:40.009Z,20.13
2019-05-23T04:09:11.081Z,20.50
2019-05-23T04:11:41.281Z,20.07
2019-05-23T04:14:11.124Z,20.33
2019-05-23T04:16:40.743Z,20.53
2019-05-23T04:19:10.971Z,21.87
2019-05-23T04:21:40.665Z,19.43
2019-05-23T04:24:10.741Z,18.13
2019-05-23T04:26:40.538Z,19.23
2019-05-23T04:29:10.738Z,19.13
2019-05-23T04:31:40.165Z,19.20
2019-05-23T04:34:09.763Z,21.33
2019-05-23T04:36:39.578Z,21.60
2019-05-23T04:39:09.687Z,20.63
2019-05-23T04:41:39.207Z,20.87
2019-05-23T04:44:10.427Z,19.83
2019-05-23T04:46:40.206Z,21.50
2019-05-23T04:49:10.552Z,20.47
2019-05-23T04:51:41.550Z,23.57
2019-05-23T04:54:11.778Z,20.83
2019-05-23T04:56:41.322Z,21.77
2019-05-23T04:59:11.312Z,20.43
2019-05-23T05:01:40.786Z,19.07
2019-05-23T05:04:10.305Z,19.67
2019-05-23T05:06:39.991Z,19.50
2019-05-23T05:09:11.635Z,21.40
2019-05-23T05:11:41.103Z,22.80
2019-05-23T05:14:11.101Z,22.87
2019-05-23T05:16:40.687Z,25.07
2019-05-23T05:19:10.593Z,22.53
2019-05-23T05:21:40.732Z,23.93
2019-05-23T05:24:10.123Z,22.33
2019-05-23T05:26:40.468Z,22.40
2019-05-23T05:29:10.363Z,21.97
2019-05-23T05:31:40.041Z,25.27
2019-05-23T05:34:09.540Z,25.53
2019-05-23T05:36:39.627Z,23.13
2019-05-23T05:39:11.555Z,25.37
2019-05-23T05:41:42.387Z,27.23
2019-05-23T05:44:12.211Z,23.50
2019-05-23T05:46:41.613Z,24.73
2019-05-23T05:49:12.757Z,24.83
2019-05-23T05:51:42.880Z,26.43
2019-05-23T05:54:22.114Z,26.93
2019-05-23T05:57:27.228Z,27.37
2019-05-23T05:59:56.888Z,26.63
2019-05-23T06:02:27.064Z,29.07
2019-05-23T06:04:56.465Z,25.70
2019-05-23T06:07:44.769Z,27.83
2019-05-23T06:10:16.464Z,29.23
2019-05-23T06:12:46.115Z,31.40
2019-05-23T06:15:16.012Z,31.60
2019-05-23T06:17:45.622Z,30.90
2019-05-23T06:20:15.511Z,26.43
2019-05-23T06:22:46.199Z,18.90
2019-05-23T06:25:16.384Z,19.83
2019-05-23T06:27:47.119Z,20.87
2019-05-23T06:30:19.630Z,20.67
2019-05-23T06:32:49.141Z,26.53
2019-05-23T06:35:19.621Z,20.53
2019-05-23T06:37:50.134Z,21.00
2019-05-23T06:40:19.816Z,21.33
2019-05-23T06:42:50.715Z,20.23
2019-05-23T06:45:20.753Z,20.00
2019-05-23T06:47:51.059Z,21.30
2019-05-23T06:50:21.751Z,17.77
2019-05-23T06:52:51.415Z,17.40
2019-05-23T06:55:21.030Z,20.47
2019-05-23T06:57:50.507Z,18.90
2019-05-23T07:00:24.256Z,16.30
2019-05-23T07:02:53.873Z,20.40
2019-05-23T07:05:28.275Z,20.47
2019-05-23T07:07:57.945Z,20.90
2019-05-23T07:10:27.668Z,20.83
2019-05-23T07:12:57.189Z,22.80
2019-05-23T07:15:28.810Z,20.03
2019-05-23T07:17:59.703Z,25.00
2019-05-23T07:20:29.977Z,21.47
2019-05-23T07:22:59.881Z,20.63
2019-05-23T07:25:31.967Z,20.87
2019-05-23T07:28:01.467Z,19.23
2019-05-23T07:30:31.498Z,18.00
2019-05-23T07:33:00.927Z,20.57
2019-05-23T07:35:30.566Z,20.33
2019-05-23T07:38:00.183Z,20.17
2019-05-23T07:40:29.834Z,19.97
2019-05-23T07:42:59.537Z,21.30
2019-05-23T07:45:39.950Z,18.27
2019-05-23T07:48:09.526Z,18.60
2019-05-23T07:50:39.007Z,16.40
2019-05-23T07:53:10.147Z,16.57
2019-05-23T07:55:42.625Z,20.40
2019-05-23T07:58:14.402Z,17.13
2019-05-23T08:00:50.683Z,15.73
2019-05-23T08:03:21.209Z,17.73
2019-05-23T08:05:50.728Z,18.23
2019-05-23T08:08:20.311Z,19.40
2019-05-23T08:10:49.875Z,16.73
2019-05-23T08:13:19.954Z,17.23
2019-05-23T08:15:50.245Z,22.73
2019-05-23T08:18:20.616Z,22.87
2019-05-23T08:20:50.069Z,19.00
2019-05-23T08:23:19.615Z,15.90
2019-05-23T08:25:49.739Z,18.93
2019-05-23T08:28:19.745Z,16.07
2019-05-23T08:30:49.272Z,17.97
2019-05-23T08:33:19.238Z,19.20
2019-05-23T08:35:49.367Z,17.90
2019-05-23T08:38:20.128Z,23.63
2019-05-23T08:40:51.279Z,18.60
2019-05-23T08:43:21.342Z,19.67
2019-05-23T08:45:50.987Z,20.43
2019-05-23T08:48:20.421Z,20.23
2019-05-23T08:50:51.560Z,19.53
2019-05-23T08:53:21.404Z,14.90
2019-05-23T08:55:52.138Z,20.33
2019-05-23T08:58:22.483Z,14.70
2019-05-23T09:00:52.667Z,14.80
2019-05-23T09:03:22.037Z,16.07
2019-05-23T09:05:52.410Z,11.77
2019-05-23T09:08:22.145Z,13.00
2019-05-23T09:10:52.094Z,13.60
2019-05-23T09:13:21.572Z,15.67
2019-05-23T09:15:53.603Z,16.93
2019-05-23T09:18:24.030Z,14.50
2019-05-23T09:20:53.619Z,17.40
2019-05-23T09:23:23.012Z,15.90
2019-05-23T09:25:53.143Z,11.73
2019-05-23T09:28:23.483Z,11.93
2019-05-23T09:30:52.917Z,13.37
2019-05-23T09:33:22.325Z,11.20
2019-05-23T09:35:52.439Z,10.30
2019-05-23T09:38:22.556Z,8.30
2019-05-23T09:40:52.455Z,9.20
2019-05-23T09:43:21.892Z,11.40
2019-05-23T09:45:53.556Z,9.53
2019-05-23T09:48:24.495Z,7.20
2019-05-23T09:50:54.246Z,8.53
2019-05-23T09:53:23.684Z,8.67
2019-05-23T09:55:55.751Z,12.00
2019-05-23T09:58:24.587Z,11.60
2019-05-23T10:00:54.034Z,10.30
2019-05-23T10:03:23.574Z,11.60
2019-05-23T10:05:54.140Z,8.00
2019-05-23T10:08:23.677Z,10.37
2019-05-23T10:10:54.734Z,10.23
2019-05-23T10:13:38.627Z,12.47
2019-05-23T10:16:03.331Z,11.87
2019-05-23T10:18:33.515Z,9.87
2019-05-23T10:21:03.783Z,11.13
2019-05-23T10:23:34.543Z,10.67
2019-05-23T10:26:05.551Z,8.03
2019-05-23T10:28:36.679Z,9.00
2019-05-23T10:31:08.902Z,7.87
2019-05-23T10:33:38.528Z,6.60
2019-05-23T10:36:07.962Z,7.37
2019-05-23T10:38:37.987Z,8.27
2019-05-23T10:41:07.952Z,6.20
2019-05-23T10:43:37.376Z,8.17
2019-05-23T10:46:07.540Z,5.47
2019-05-23T10:48:39.283Z,8.23
2019-05-23T10:51:08.654Z,11.90
2019-05-23T10:53:38.876Z,7.23
2019-05-23T10:56:08.555Z,8.13
2019-05-23T10:58:38.135Z,7.00
2019-05-23T11:01:07.798Z,11.90
2019-05-23T11:03:37.523Z,9.50
2019-05-23T11:06:16.202Z,9.10
2019-05-23T11:08:40.054Z,7.97
2019-05-23T11:11:13.942Z,6.70
2019-05-23T11:13:41.451Z,8.10
2019-05-23T11:16:11.317Z,11.17
2019-05-23T11:18:40.986Z,7.03
2019-05-23T11:21:10.552Z,6.00
2019-05-23T11:23:44.218Z,9.10
2019-05-23T11:26:14.107Z,8.03
2019-05-23T11:28:44.164Z,8.70
2019-05-23T11:31:13.767Z,6.47
2019-05-23T11:33:43.170Z,8.67
2019-05-23T11:36:13.729Z,7.17
2019-05-23T11:38:43.262Z,9.57
2019-05-23T11:41:13.020Z,6.00
2019-05-23T11:43:43.004Z,8.17
2019-05-23T11:46:19.284Z,10.77
2019-05-23T11:48:49.269Z,5.50
2019-05-23T11:51:19.412Z,6.30
2019-05-23T11:54:06.034Z,6.77
2019-05-23T11:56:20.757Z,7.27
2019-05-23T11:58:50.559Z,6.53
2019-05-23T12:01:42.500Z,8.27
2019-05-23T12:04:20.484Z,6.97
2019-05-23T12:06:56.464Z,7.77
2019-05-23T12:09:26.803Z,7.50
2019-05-23T12:11:57.069Z,6.27
2019-05-23T12:14:26.683Z,6.33
2019-05-23T12:16:57.540Z,5.93
2019-05-23T12:19:27.934Z,6.47
2019-05-23T12:21:57.481Z,6.77
2019-05-23T12:24:26.936Z,6.63
2019-05-23T12:26:56.504Z,6.97
2019-05-23T12:29:26.069Z,6.77
2019-05-23T12:31:56.208Z,7.83
2019-05-23T12:34:26.022Z,6.70
2019-05-23T12:37:17.292Z,7.53
2019-05-23T12:39:27.812Z,6.40
2019-05-23T12:41:57.364Z,7.97
2019-05-23T12:44:26.920Z,7.20
2019-05-23T12:46:56.370Z,8.03
2019-05-23T12:49:31.182Z,8.97
2019-05-23T12:52:01.135Z,8.30
2019-05-23T12:54:31.200Z,6.70
2019-05-23T12:57:00.545Z,6.03
2019-05-23T12:59:30.290Z,7.73
2019-05-23T13:02:01.735Z,8.00
2019-05-23T13:04:31.552Z,10.23
2019-05-23T13:07:01.153Z,6.90
2019-05-23T13:09:30.690Z,9.17
2019-05-23T13:12:00.121Z,5.80
2019-05-23T13:14:30.722Z,6.83
2019-05-23T13:17:01.630Z,6.90
2019-05-23T13:19:31.863Z,7.60
2019-05-23T13:22:02.144Z,6.27
2019-05-23T13:24:50.644Z,7.67
2019-05-23T13:27:04.668Z,7.00
2019-05-23T13:29:34.607Z,7.50
2019-05-23T13:32:05.306Z,7.77
2019-05-23T13:34:35.545Z,7.90
2019-05-23T13:37:07.003Z,7.87
2019-05-23T13:39:37.208Z,7.17
2019-05-23T13:42:07.212Z,6.77
2019-05-23T13:44:36.718Z,8.10
2019-05-23T13:47:06.246Z,7.20
2019-05-23T13:49:35.970Z,8.93
2019-05-23T13:52:05.758Z,8.10
2019-05-23T13:54:36.383Z,7.83
2019-05-23T13:57:08.040Z,8.67
2019-05-23T13:59:38.384Z,10.80
2019-05-23T14:02:10.218Z,9.83
2019-05-23T14:04:41.291Z,7.73
2019-05-23T14:07:12.150Z,7.43
2019-05-23T14:09:41.708Z,8.83
2019-05-23T14:12:26.520Z,11.43
2019-05-23T14:14:42.812Z,10.17
2019-05-23T14:17:29.813Z,9.27
2019-05-23T14:19:59.527Z,11.53
2019-05-23T14:22:32.610Z,9.03
2019-05-23T14:25:02.534Z,8.43
2019-05-23T14:27:51.229Z,7.87
2019-05-23T14:30:36.195Z,8.53
2019-05-23T14:33:10.450Z,10.33
2019-05-23T14:35:41.123Z,10.77
2019-05-23T14:38:29.198Z,9.97
2019-05-23T14:40:44.549Z,8.37
2019-05-23T14:43:21.403Z,8.50
2019-05-23T14:45:57.863Z,8.53
2019-05-23T14:49:03.386Z,10.90
2019-05-23T14:51:52.064Z,10.73
2019-05-23T14:54:37.159Z,9.97
2019-05-23T14:57:07.928Z,9.17
2019-05-23T14:59:38.119Z,11.97
2019-05-23T15:02:12.399Z,9.27
2019-05-23T15:04:42.162Z,9.87
2019-05-23T15:07:11.956Z,9.30
2019-05-23T15:09:41.733Z,9.10
2019-05-23T15:12:11.597Z,8.67
2019-05-23T15:14:42.257Z,9.20
2019-05-23T15:17:12.170Z,11.97
2019-05-23T15:19:45.228Z,10.77
2019-05-23T15:22:14.281Z,10.50
2019-05-23T15:24:44.130Z,9.47
2019-05-23T15:27:13.593Z,11.33
2019-05-23T15:29:43.636Z,10.37
2019-05-23T15:32:13.305Z,9.63
2019-05-23T15:34:42.819Z,10.50
2019-05-23T15:37:12.520Z,9.23
2019-05-23T15:39:43.645Z,10.60
2019-05-23T15:42:13.281Z,9.23
2019-05-23T15:44:42.990Z,8.37
2019-05-23T15:47:12.668Z,10.20
2019-05-23T15:49:44.564Z,9.37
2019-05-23T15:52:37.731Z,8.90
2019-05-23T15:55:29.461Z,9.30
2019-05-23T15:58:06.085Z,9.77
2019-05-23T16:00:54.984Z,8.50
2019-05-23T16:03:35.296Z,8.83
2019-05-23T16:06:07.052Z,6.80
2019-05-23T16:08:38.274Z,7.37
2019-05-23T16:11:07.928Z,10.17
2019-05-23T16:13:37.414Z,8.17
2019-05-23T16:16:07.642Z,7.80
2019-05-23T16:18:37.825Z,6.97
2019-05-23T16:21:07.887Z,7.17
2019-05-23T16:23:37.835Z,12.03
2019-05-23T16:26:09.379Z,9.23
2019-05-23T16:28:38.518Z,7.17
2019-05-23T16:31:08.269Z,10.47
2019-05-23T16:33:38.441Z,9.10
2019-05-23T16:36:08.524Z,12.07
2019-05-23T16:38:38.005Z,8.23
2019-05-23T16:41:11.640Z,9.70
2019-05-23T16:43:41.007Z,9.87
2019-05-23T16:46:10.816Z,7.77
2019-05-23T16:48:40.542Z,10.57
2019-05-23T16:51:10.400Z,9.60
2019-05-23T16:53:40.791Z,7.87
2019-05-23T16:56:18.083Z,7.00
2019-05-23T16:59:18.827Z,6.73
2019-05-23T17:02:16.419Z,8.07
2019-05-23T17:05:08.430Z,6.90
2019-05-23T17:07:37.076Z,7.87
2019-05-23T17:10:26.024Z,13.23
2019-05-23T17:13:04.108Z,7.07
2019-05-23T17:16:11.459Z,6.67
2019-05-23T17:18:50.125Z,6.83
2019-05-23T17:21:31.054Z,6.90
2019-05-23T17:24:06.611Z,6.80
2019-05-23T17:27:13.894Z,5.80
2019-05-23T17:29:50.534Z,6.90
2019-05-23T17:32:25.077Z,7.60
2019-05-23T17:34:54.601Z,6.27
2019-05-23T17:37:25.145Z,6.13
2019-05-23T17:39:55.789Z,12.10
2019-05-23T17:42:25.579Z,5.90
2019-05-23T17:44:55.045Z,5.97
2019-05-23T17:47:25.067Z,5.67
2019-05-23T17:49:55.096Z,5.67
2019-05-23T17:52:25.051Z,6.63
2019-05-23T17:54:54.970Z,6.53
2019-05-23T17:57:25.195Z,6.27
2019-05-23T17:59:54.962Z,5.03
2019-05-23T18:02:24.701Z,5.20
2019-05-23T18:04:54.826Z,5.20
2019-05-23T18:07:25.442Z,5.70
2019-05-23T18:09:56.817Z,5.23
2019-05-23T18:12:26.838Z,5.37
2019-05-23T18:14:56.568Z,6.50
2019-05-23T18:17:28.432Z,3.77
2019-05-23T18:19:58.313Z,4.40
2019-05-23T18:22:28.730Z,4.93
2019-05-23T18:25:00.008Z,5.07
2019-05-23T18:27:30.119Z,8.33
2019-05-23T18:30:00.341Z,3.90
2019-05-23T18:32:30.511Z,6.10
2019-05-23T18:35:00.710Z,5.77
2019-05-23T18:37:31.017Z,4.57
2019-05-23T18:40:00.580Z,4.93
2019-05-23T18:42:31.615Z,5.20
2019-05-23T18:45:01.866Z,3.90
2019-05-23T18:47:38.816Z,3.30
2019-05-23T18:50:10.260Z,6.10
2019-05-23T18:52:39.987Z,3.87
2019-05-23T18:55:10.037Z,3.47
2019-05-23T18:57:39.813Z,4.67
2019-05-23T19:00:11.368Z,5.17
2019-05-23T19:02:41.105Z,3.43
2019-05-23T19:05:11.932Z,3.73
2019-05-23T19:07:41.920Z,5.87
2019-05-23T19:10:12.582Z,3.30
2019-05-23T19:12:43.330Z,5.83
2019-05-23T19:15:13.690Z,5.07
2019-05-23T19:17:43.617Z,5.93
2019-05-23T19:20:14.793Z,7.00
2019-05-23T19:22:44.645Z,4.20
2019-05-23T19:25:14.132Z,4.10
2019-05-23T19:27:44.086Z,4.67
2019-05-23T19:30:33.238Z,8.93
2019-05-23T19:33:03.119Z,6.77
2019-05-23T19:35:32.890Z,4.63
2019-05-23T19:38:03.247Z,6.40
2019-05-23T19:40:33.463Z,7.40
2019-05-23T19:43:02.955Z,6.30
2019-05-23T19:45:32.836Z,6.57
2019-05-23T19:48:02.662Z,7.20
2019-05-23T19:50:32.944Z,7.73
2019-05-23T19:53:02.770Z,10.83
2019-05-23T19:55:32.682Z,10.20
2019-05-23T19:58:02.802Z,9.10
2019-05-23T20:00:34.186Z,10.10
2019-05-23T20:03:04.673Z,9.73
2019-05-23T20:05:36.663Z,8.80
2019-05-23T20:08:06.837Z,9.33
2019-05-23T20:10:37.473Z,9.17
2019-05-23T20:13:07.449Z,10.07
2019-05-23T20:15:37.835Z,10.07
2019-05-23T20:18:08.403Z,9.43
2019-05-23T20:20:39.357Z,12.73
2019-05-23T20:23:15.481Z,15.87
2019-05-23T20:25:43.533Z,13.70
2019-05-23T20:28:13.893Z,11.87
2019-05-23T20:30:56.759Z,10.90
2019-05-23T20:33:26.843Z,10.37
2019-05-23T20:35:56.616Z,11.80
2019-05-23T20:38:27.080Z,11.47
2019-05-23T20:40:57.350Z,11.53
2019-05-23T20:43:27.198Z,10.53
2019-05-23T20:45:56.737Z,8.67
2019-05-23T20:48:26.805Z,10.80
2019-05-23T20:50:56.447Z,11.67
2019-05-23T20:53:26.567Z,11.07
2019-05-23T20:55:56.278Z,11.83
2019-05-23T20:58:26.004Z,13.10
2019-05-23T21:01:07.579Z,13.57
2019-05-23T21:03:37.494Z,12.17
2019-05-23T21:06:07.772Z,13.03
2019-05-23T21:08:37.783Z,13.00
2019-05-23T21:11:07.393Z,13.07
2019-05-23T21:13:37.299Z,13.90
2019-05-23T21:16:07.339Z,15.43
2019-05-23T21:18:36.983Z,11.10
2019-05-23T21:21:07.214Z,10.47
2019-05-23T21:23:37.097Z,11.73
2019-05-23T21:26:07.249Z,11.67
2019-05-23T21:28:37.259Z,12.00
2019-05-23T21:31:19.887Z,10.33
2019-05-23T21:33:49.715Z,8.90
2019-05-23T21:36:19.312Z,12.73
2019-05-23T21:38:48.854Z,11.83
2019-05-23T21:41:18.700Z,11.17
2019-05-23T21:43:49.615Z,11.20
2019-05-23T21:46:19.446Z,10.97
2019-05-23T21:48:48.891Z,11.50
2019-05-23T21:51:18.670Z,12.50
2019-05-23T21:53:48.284Z,9.80
2019-05-23T21:56:17.929Z,10.90
2019-05-23T21:58:47.722Z,11.47
2019-05-23T22:01:40.373Z,10.33
2019-05-23T22:04:28.956Z,11.20
2019-05-23T22:07:00.851Z,12.77
2019-05-23T22:09:31.122Z,12.47
2019-05-23T22:12:01.568Z,13.27
2019-05-23T22:14:33.178Z,12.47
2019-05-23T22:17:02.782Z,12.37
2019-05-23T22:19:33.580Z,12.93
2019-05-23T22:22:04.119Z,12.03
2019-05-23T22:24:33.583Z,14.47
2019-05-23T22:27:03.172Z,13.30
2019-05-23T22:29:33.015Z,13.27
2019-05-23T22:32:04.385Z,12.10
2019-05-23T22:34:44.711Z,12.53
2019-05-23T22:37:32.840Z,13.47
2019-05-23T22:40:02.313Z,13.77
2019-05-23T22:42:32.120Z,10.50
2019-05-23T22:45:03.404Z,13.07
2019-05-23T22:47:33.455Z,10.40
2019-05-23T22:50:03.245Z,11.57
2019-05-23T22:52:33.439Z,11.30
2019-05-23T22:55:03.387Z,12.30
2019-05-23T22:57:32.935Z,11.13
2019-05-23T23:00:02.826Z,12.17
2019-05-23T23:02:32.804Z,11.10
2019-05-23T23:05:02.228Z,11.77
2019-05-23T23:07:32.249Z,12.43
2019-05-23T23:10:01.686Z,11.50
2019-05-23T23:12:31.778Z,12.50
2019-05-23T23:15:01.329Z,12.83
2019-05-23T23:17:31.299Z,14.10
2019-05-23T23:20:02.455Z,10.70
2019-05-23T23:22:31.956Z,10.43
2019-05-23T23:25:01.526Z,12.30
2019-05-23T23:27:30.942Z,12.90
2019-05-23T23:30:00.468Z,13.10
2019-05-23T23:32:29.938Z,13.03
2019-05-23T23:35:00.190Z,11.87
2019-05-23T23:37:30.555Z,13.83
2019-05-23T23:40:00.885Z,13.67
2019-05-23T23:42:30.278Z,12.57
2019-05-23T23:45:17.755Z,11.73
2019-05-23T23:48:05.279Z,11.90
2019-05-23T23:50:52.604Z,11.47
2019-05-23T23:53:39.791Z,12.17
2019-05-23T23:56:26.771Z,13.23
2019-05-23T23:58:55.347Z,11.57
